createdAt,value
2023-03-25T00:01:20.094Z,9.32
2023-03-25T00:03:50.764Z,8.57
2023-03-25T00:06:19.873Z,6.55
2023-03-25T00:08:48.539Z,6.95
2023-03-25T00:11:17.546Z,6.80
2023-03-25T00:13:46.199Z,2.85
2023-03-25T00:16:14.816Z,7.30
2023-03-25T00:18:43.777Z,11.00
2023-03-25T00:21:13.767Z,7.70
2023-03-25T00:23:43.115Z,9.02
2023-03-25T00:26:11.735Z,9.52
2023-03-25T00:28:41.062Z,8.57
2023-03-25T00:31:10.708Z,4.75
2023-03-25T00:33:41.680Z,7.55
2023-03-25T00:36:13.766Z,4.70
2023-03-25T00:38:43.962Z,5.90
2023-03-25T00:41:14.790Z,7.60
2023-03-25T00:43:43.253Z,5.57
2023-03-25T00:46:11.865Z,9.05
2023-03-25T00:48:41.325Z,9.98
2023-03-25T00:51:10.401Z,9.43
2023-03-25T00:53:39.636Z,6.40
2023-03-25T00:56:09.851Z,5.70
2023-03-25T00:58:38.528Z,6.70
2023-03-25T01:01:13.404Z,6.75
2023-03-25T01:03:43.956Z,8.02
2023-03-25T01:06:13.797Z,10.50
2023-03-25T01:08:42.801Z,5.47
2023-03-25T01:11:20.808Z,5.30
2023-03-25T01:13:50.185Z,8.02
2023-03-25T01:16:19.294Z,5.97
2023-03-25T01:18:47.999Z,6.78
2023-03-25T01:21:16.928Z,6.97
2023-03-25T01:23:45.577Z,10.25
2023-03-25T01:26:14.289Z,12.07
2023-03-25T01:28:45.030Z,5.80
2023-03-25T01:31:14.700Z,4.03
2023-03-25T01:33:43.514Z,11.38
2023-03-25T01:36:12.947Z,7.68
2023-03-25T01:38:42.410Z,13.43
2023-03-25T01:41:11.709Z,5.13
2023-03-25T01:43:40.467Z,7.22
2023-03-25T01:46:15.194Z,12.30
2023-03-25T01:48:45.480Z,11.30
2023-03-25T01:51:16.530Z,17.80
2023-03-25T01:53:45.373Z,15.45
2023-03-25T01:56:15.516Z,12.85
2023-03-25T01:58:45.828Z,9.90
2023-03-25T02:01:21.840Z,13.63
2023-03-25T02:03:53.061Z,18.88
2023-03-25T02:06:24.730Z,17.38
2023-03-25T02:08:55.245Z,11.77
2023-03-25T02:11:29.001Z,15.50
2023-03-25T02:13:59.310Z,14.57
2023-03-25T02:16:33.490Z,15.70
2023-03-25T02:19:10.973Z,12.13
2023-03-25T02:21:54.486Z,15.52
2023-03-25T02:24:37.942Z,11.38
2023-03-25T02:27:41.919Z,11.70
2023-03-25T02:30:17.540Z,14.13
2023-03-25T02:32:56.936Z,15.32
2023-03-25T02:35:31.446Z,14.32
2023-03-25T02:38:13.647Z,11.60
2023-03-25T02:40:46.419Z,18.92
2023-03-25T02:43:20.728Z,10.93
2023-03-25T02:45:52.481Z,17.80
2023-03-25T02:48:24.192Z,12.80
2023-03-25T02:50:54.483Z,16.60
2023-03-25T02:53:27.022Z,21.60
2023-03-25T02:55:57.644Z,16.20
2023-03-25T02:58:27.744Z,16.15
2023-03-25T03:00:58.949Z,18.13
2023-03-25T03:03:28.122Z,10.35
2023-03-25T03:05:59.393Z,8.00
2023-03-25T03:08:43.769Z,10.63
2023-03-25T03:11:15.613Z,12.13
2023-03-25T03:14:05.052Z,13.05
2023-03-25T03:16:35.965Z,14.90
2023-03-25T03:19:08.127Z,15.43
2023-03-25T03:21:41.956Z,11.77
2023-03-25T03:24:17.699Z,11.63
2023-03-25T03:26:48.386Z,8.85
2023-03-25T03:29:19.121Z,9.98
2023-03-25T03:32:05.964Z,11.45
2023-03-25T03:34:41.193Z,10.90
2023-03-25T03:37:11.435Z,9.70
2023-03-25T03:39:41.984Z,11.80
2023-03-25T03:42:12.790Z,7.60
2023-03-25T03:44:43.199Z,5.90
2023-03-25T03:47:14.343Z,12.10
2023-03-25T03:49:44.694Z,7.22
2023-03-25T03:52:15.294Z,14.35
2023-03-25T03:54:47.704Z,13.95
2023-03-25T03:57:18.976Z,9.70
2023-03-25T03:59:49.415Z,16.15
2023-03-25T04:02:24.435Z,12.88
2023-03-25T04:04:53.934Z,12.05
2023-03-25T04:07:25.590Z,6.53
2023-03-25T04:10:02.766Z,9.23
2023-03-25T04:12:33.525Z,10.45
2023-03-25T04:15:03.201Z,13.32
2023-03-25T04:17:33.196Z,8.85
2023-03-25T04:20:09.038Z,5.95
2023-03-25T04:22:38.619Z,8.25
2023-03-25T04:25:10.124Z,8.38
2023-03-25T04:27:39.146Z,8.57
2023-03-25T04:30:08.849Z,5.18
2023-03-25T04:32:37.534Z,11.60
2023-03-25T04:35:06.356Z,4.78
2023-03-25T04:37:37.133Z,6.88
2023-03-25T04:40:08.312Z,7.82
2023-03-25T04:42:38.493Z,9.18
2023-03-25T04:45:07.556Z,7.43
2023-03-25T04:47:36.296Z,13.55
2023-03-25T04:50:05.095Z,5.60
2023-03-25T04:52:34.621Z,13.10
2023-03-25T04:55:05.289Z,5.05
2023-03-25T04:57:34.031Z,10.05
2023-03-25T05:00:06.907Z,6.30
2023-03-25T05:02:35.506Z,8.82
2023-03-25T05:05:04.922Z,10.43
2023-03-25T05:07:33.531Z,8.07
2023-03-25T05:10:02.931Z,9.20
2023-03-25T05:12:31.730Z,13.60
2023-03-25T05:15:00.315Z,15.00
2023-03-25T05:17:30.596Z,12.65
2023-03-25T05:19:59.225Z,8.73
2023-03-25T05:22:27.882Z,12.50
2023-03-25T05:24:56.504Z,8.90
2023-03-25T05:27:25.226Z,8.25
2023-03-25T05:29:54.285Z,9.80
2023-03-25T05:32:23.676Z,13.90
2023-03-25T05:34:53.782Z,11.65
2023-03-25T05:37:22.652Z,11.07
2023-03-25T05:39:51.808Z,12.48
2023-03-25T05:42:23.034Z,13.43
2023-03-25T05:44:52.152Z,8.88
2023-03-25T05:47:22.040Z,6.57
2023-03-25T05:49:50.946Z,13.20
2023-03-25T05:52:24.595Z,12.73
2023-03-25T05:54:53.407Z,15.68
2023-03-25T05:57:22.010Z,10.60
2023-03-25T05:59:51.266Z,15.65
2023-03-25T06:02:20.682Z,11.02
2023-03-25T06:04:51.256Z,16.60
2023-03-25T06:07:22.656Z,9.35
2023-03-25T06:09:54.366Z,7.43
2023-03-25T06:12:23.715Z,15.98
2023-03-25T06:14:54.480Z,14.15
2023-03-25T06:17:23.742Z,9.85
2023-03-25T06:19:52.909Z,9.43
2023-03-25T06:22:22.983Z,17.10
2023-03-25T06:24:52.474Z,13.90
2023-03-25T06:27:22.089Z,9.43
2023-03-25T06:29:50.957Z,9.93
2023-03-25T06:32:19.528Z,16.42
2023-03-25T06:34:48.214Z,17.02
2023-03-25T06:37:16.800Z,14.93
2023-03-25T06:39:49.943Z,15.35
2023-03-25T06:42:18.698Z,17.40
2023-03-25T06:44:47.258Z,22.55
2023-03-25T06:47:15.978Z,16.73
2023-03-25T06:49:44.573Z,14.32
2023-03-25T06:52:13.312Z,14.55
2023-03-25T06:54:42.031Z,23.30
2023-03-25T06:57:12.140Z,23.58
2023-03-25T06:59:41.046Z,21.25
2023-03-25T07:02:09.685Z,29.40
2023-03-25T07:04:38.525Z,25.15
2023-03-25T07:07:07.212Z,22.13
2023-03-25T07:09:36.021Z,20.45
2023-03-25T07:12:06.419Z,19.35
2023-03-25T07:14:38.466Z,16.20
2023-03-25T07:17:08.492Z,15.10
2023-03-25T07:19:37.127Z,15.43
2023-03-25T07:22:05.751Z,16.98
2023-03-25T07:24:34.493Z,27.00
2023-03-25T07:27:03.050Z,20.42
2023-03-25T07:29:31.843Z,21.50
2023-03-25T07:32:02.037Z,16.02
2023-03-25T07:34:30.956Z,14.68
2023-03-25T07:37:00.021Z,21.85
2023-03-25T07:39:28.429Z,17.25
2023-03-25T07:41:57.082Z,22.00
2023-03-25T07:44:25.640Z,20.48
2023-03-25T07:46:54.045Z,15.50
2023-03-25T07:49:24.171Z,19.95
2023-03-25T07:51:52.500Z,16.80
2023-03-25T07:54:22.473Z,9.13
2023-03-25T07:56:50.991Z,9.35
2023-03-25T07:59:19.520Z,18.38
2023-03-25T08:01:47.933Z,14.82
2023-03-25T08:04:16.272Z,13.63
2023-03-25T08:06:46.097Z,12.13
2023-03-25T08:09:14.474Z,14.77
2023-03-25T08:11:42.822Z,22.17
2023-03-25T08:14:11.299Z,18.40
2023-03-25T08:16:40.406Z,16.58
2023-03-25T08:19:09.039Z,15.43
2023-03-25T08:21:37.412Z,21.58
2023-03-25T08:24:07.936Z,17.52
2023-03-25T08:26:37.637Z,14.63
2023-03-25T08:29:07.719Z,12.60
2023-03-25T08:31:38.707Z,17.63
2023-03-25T08:34:07.815Z,11.45
2023-03-25T08:36:39.538Z,17.00
2023-03-25T08:39:12.116Z,12.52
2023-03-25T08:41:41.404Z,16.17
2023-03-25T08:44:10.221Z,15.35
2023-03-25T08:46:39.650Z,14.77
2023-03-25T08:49:08.405Z,13.98
2023-03-25T08:51:36.965Z,16.55
2023-03-25T08:54:05.812Z,18.13
2023-03-25T08:56:35.964Z,19.42
2023-03-25T08:59:04.586Z,12.80
2023-03-25T09:01:33.265Z,11.68
2023-03-25T09:04:02.043Z,17.90
2023-03-25T09:06:47.239Z,21.20
2023-03-25T09:09:17.321Z,16.80
2023-03-25T09:11:47.456Z,13.10
2023-03-25T09:14:16.118Z,13.48
2023-03-25T09:16:44.690Z,11.75
2023-03-25T09:19:13.009Z,14.02
2023-03-25T09:21:41.490Z,17.15
2023-03-25T09:24:10.545Z,13.95
2023-03-25T09:26:38.886Z,13.57
2023-03-25T09:29:08.710Z,7.93
2023-03-25T09:31:37.193Z,15.55
2023-03-25T09:34:06.507Z,16.67
2023-03-25T09:36:34.912Z,8.48
2023-03-25T09:39:03.569Z,18.73
2023-03-25T09:41:46.188Z,9.30
2023-03-25T09:44:23.113Z,9.68
2023-03-25T09:46:51.762Z,13.85
2023-03-25T09:49:25.207Z,12.15
2023-03-25T09:51:56.106Z,8.52
2023-03-25T09:54:27.043Z,6.78
2023-03-25T09:56:58.213Z,13.25
2023-03-25T09:59:40.056Z,8.18
2023-03-25T10:02:19.263Z,10.98
2023-03-25T10:05:04.594Z,20.85
2023-03-25T10:07:46.204Z,12.60
2023-03-25T10:10:24.510Z,11.38
2023-03-25T10:13:04.254Z,17.42
2023-03-25T10:15:39.698Z,13.90
2023-03-25T10:18:37.988Z,10.68
2023-03-25T10:21:12.805Z,10.80
2023-03-25T10:23:46.153Z,22.17
2023-03-25T10:26:19.037Z,12.85
2023-03-25T10:28:54.300Z,14.02
2023-03-25T10:31:27.815Z,8.82
2023-03-25T10:34:00.890Z,17.15
2023-03-25T10:36:35.005Z,15.13
2023-03-25T10:39:05.998Z,11.95
2023-03-25T10:41:38.127Z,11.05
2023-03-25T10:44:10.436Z,10.93
2023-03-25T10:46:47.728Z,11.27
2023-03-25T10:49:19.416Z,15.13
2023-03-25T10:51:49.046Z,18.98
2023-03-25T10:54:18.921Z,11.23
2023-03-25T10:56:49.362Z,12.30
2023-03-25T10:59:21.833Z,15.45
2023-03-25T11:01:54.584Z,9.68
2023-03-25T11:04:25.261Z,15.52
2023-03-25T11:06:57.591Z,12.35
2023-03-25T11:09:28.232Z,6.93
2023-03-25T11:11:56.859Z,10.05
2023-03-25T11:14:27.633Z,20.30
2023-03-25T11:17:00.567Z,10.75
2023-03-25T11:19:32.363Z,16.60
2023-03-25T11:22:04.665Z,15.15
2023-03-25T11:24:35.026Z,15.48
2023-03-25T11:27:04.250Z,11.88
2023-03-25T11:29:35.141Z,20.23
2023-03-25T11:32:10.046Z,16.73
2023-03-25T11:34:42.225Z,17.70
2023-03-25T11:37:19.216Z,16.73
2023-03-25T11:39:51.713Z,9.23
2023-03-25T11:42:32.636Z,10.23
2023-03-25T11:45:03.534Z,5.35
2023-03-25T11:47:35.710Z,9.68
2023-03-25T11:50:05.657Z,13.30
2023-03-25T11:52:41.425Z,11.25
2023-03-25T11:55:19.512Z,16.30
2023-03-25T11:57:49.021Z,18.25
2023-03-25T12:00:34.162Z,7.10
2023-03-25T12:03:07.041Z,18.42
2023-03-25T12:05:36.036Z,13.13
2023-03-25T12:08:15.588Z,12.68
2023-03-25T12:10:56.697Z,10.85
2023-03-25T12:13:37.256Z,14.73
2023-03-25T12:16:18.081Z,12.73
2023-03-25T12:19:01.293Z,10.32
2023-03-25T12:21:43.126Z,12.63
2023-03-25T12:24:25.834Z,13.43
2023-03-25T12:27:08.241Z,12.93
2023-03-25T12:29:43.019Z,17.08
2023-03-25T12:32:29.944Z,14.27
2023-03-25T12:35:18.739Z,13.00
2023-03-25T12:38:01.905Z,14.20
2023-03-25T12:40:42.557Z,13.82
2023-03-25T12:43:21.366Z,12.65
2023-03-25T12:46:10.698Z,15.43
2023-03-25T12:49:05.226Z,13.00
2023-03-25T12:51:43.794Z,16.65
2023-03-25T12:54:25.880Z,10.60
2023-03-25T12:57:01.139Z,12.43
2023-03-25T13:00:02.054Z,8.15
2023-03-25T13:02:55.544Z,11.00
2023-03-25T13:05:28.257Z,15.65
2023-03-25T13:08:01.629Z,9.02
2023-03-25T13:10:32.775Z,14.82
2023-03-25T13:13:02.660Z,10.50
2023-03-25T13:15:36.406Z,12.13
2023-03-25T13:18:10.546Z,11.65
2023-03-25T13:20:43.159Z,14.13
2023-03-25T13:23:21.541Z,16.05
2023-03-25T13:25:53.250Z,10.05
2023-03-25T13:28:25.646Z,11.75
2023-03-25T13:30:56.577Z,16.45
2023-03-25T13:33:26.632Z,9.15
2023-03-25T13:35:56.195Z,7.75
2023-03-25T13:38:28.606Z,9.93
2023-03-25T13:41:10.420Z,15.60
2023-03-25T13:43:47.612Z,15.50
2023-03-25T13:46:21.100Z,21.05
2023-03-25T13:48:54.109Z,13.85
2023-03-25T13:51:22.521Z,10.80
2023-03-25T13:53:56.908Z,11.70
2023-03-25T13:56:42.766Z,8.85
2023-03-25T13:59:45.941Z,9.18
2023-03-25T14:02:36.051Z,7.10
2023-03-25T14:05:35.122Z,9.77
2023-03-25T14:08:13.258Z,15.90
2023-03-25T14:10:50.136Z,12.85
2023-03-25T14:13:25.009Z,9.25
2023-03-25T14:16:00.325Z,10.07
2023-03-25T14:18:32.151Z,12.77
2023-03-25T14:21:15.321Z,11.50
2023-03-25T14:23:44.663Z,14.23
2023-03-25T14:26:18.869Z,5.63
2023-03-25T14:28:48.520Z,17.25
2023-03-25T14:31:27.589Z,11.10
2023-03-25T14:34:11.118Z,11.55
2023-03-25T14:36:55.686Z,7.95
2023-03-25T14:39:40.052Z,5.70
2023-03-25T14:42:14.417Z,9.40
2023-03-25T14:44:49.842Z,8.60
2023-03-25T14:47:28.755Z,9.63
2023-03-25T14:50:05.216Z,9.82
2023-03-25T14:52:35.176Z,14.15
2023-03-25T14:55:08.125Z,8.95
2023-03-25T14:57:42.353Z,15.02
2023-03-25T15:00:13.661Z,11.65
2023-03-25T15:02:43.316Z,8.55
2023-03-25T15:05:18.413Z,8.02
2023-03-25T15:07:48.843Z,6.18
2023-03-25T15:10:22.091Z,11.13
2023-03-25T15:12:53.976Z,8.95
2023-03-25T15:15:31.662Z,12.98
2023-03-25T15:18:01.036Z,12.38
2023-03-25T15:20:36.030Z,9.52
2023-03-25T15:23:33.345Z,13.45
2023-03-25T15:26:03.302Z,12.38
2023-03-25T15:29:07.884Z,10.00
2023-03-25T15:32:03.694Z,7.25
2023-03-25T15:34:44.868Z,12.52
2023-03-25T15:37:48.686Z,9.30
2023-03-25T15:40:32.784Z,16.55
2023-03-25T15:43:36.263Z,15.45
2023-03-25T15:46:31.729Z,8.10
2023-03-25T15:49:15.706Z,9.48
2023-03-25T15:51:55.898Z,10.40
2023-03-25T15:54:32.361Z,7.65
2023-03-25T15:57:06.273Z,8.70
2023-03-25T15:59:42.697Z,9.85
2023-03-25T16:02:21.275Z,8.88
2023-03-25T16:04:52.283Z,16.42
2023-03-25T16:07:23.607Z,14.57
2023-03-25T16:09:53.288Z,7.88
2023-03-25T16:12:23.710Z,10.40
2023-03-25T16:14:53.415Z,8.85
2023-03-25T16:17:24.521Z,14.48
2023-03-25T16:19:56.604Z,14.48
2023-03-25T16:22:28.615Z,19.05
2023-03-25T16:24:59.076Z,11.48
2023-03-25T16:27:31.505Z,10.77
2023-03-25T16:29:59.814Z,13.88
2023-03-25T16:32:33.907Z,10.35
2023-03-25T16:35:04.674Z,13.50
2023-03-25T16:37:34.099Z,11.98
2023-03-25T16:40:07.532Z,12.70
2023-03-25T16:42:37.360Z,10.05
2023-03-25T16:45:09.167Z,11.45
2023-03-25T16:47:38.174Z,22.38
2023-03-25T16:50:18.983Z,18.67
2023-03-25T16:52:48.216Z,17.20
2023-03-25T16:55:30.230Z,13.07
2023-03-25T16:58:02.402Z,15.82
2023-03-25T17:00:42.656Z,21.33
2023-03-25T17:03:20.230Z,19.35
2023-03-25T17:06:10.152Z,18.23
2023-03-25T17:08:38.634Z,15.63
2023-03-25T17:11:10.288Z,14.32
2023-03-25T17:13:43.714Z,11.43
2023-03-25T17:16:12.307Z,16.25
2023-03-25T17:18:41.195Z,17.55
2023-03-25T17:21:13.830Z,19.50
2023-03-25T17:23:45.786Z,17.05
2023-03-25T17:26:17.565Z,16.40
2023-03-25T17:28:46.940Z,19.35
2023-03-25T17:31:19.949Z,21.92
2023-03-25T17:33:52.781Z,21.83
2023-03-25T17:36:23.345Z,21.73
2023-03-25T17:38:53.485Z,26.42
2023-03-25T17:41:22.371Z,16.02
2023-03-25T17:43:54.256Z,29.00
2023-03-25T17:46:24.037Z,21.15
2023-03-25T17:48:53.597Z,21.20
2023-03-25T17:51:23.964Z,25.13
2023-03-25T17:53:52.590Z,25.13
2023-03-25T17:56:25.150Z,20.73
2023-03-25T17:58:54.638Z,23.58
2023-03-25T18:01:25.561Z,22.75
2023-03-25T18:03:54.634Z,25.52
2023-03-25T18:06:24.684Z,20.13
2023-03-25T18:08:53.587Z,27.58
2023-03-25T18:11:23.836Z,19.20
2023-03-25T18:13:52.185Z,27.85
2023-03-25T18:16:22.387Z,26.08
2023-03-25T18:18:51.065Z,29.83
2023-03-25T18:21:23.706Z,22.85
2023-03-25T18:23:52.403Z,28.45
2023-03-25T18:26:21.318Z,24.92
2023-03-25T18:28:49.855Z,26.02
2023-03-25T18:31:18.756Z,23.20
2023-03-25T18:33:48.495Z,26.77
2023-03-25T18:36:17.455Z,25.70
2023-03-25T18:38:47.780Z,20.55
2023-03-25T18:41:17.638Z,18.33
2023-03-25T18:43:46.274Z,22.60
2023-03-25T18:46:15.559Z,29.38
2023-03-25T18:48:44.628Z,22.77
2023-03-25T18:51:13.745Z,40.13
2023-03-25T18:53:42.644Z,28.20
2023-03-25T18:56:12.766Z,38.53
2023-03-25T18:58:41.467Z,21.58
2023-03-25T19:01:10.355Z,29.83
2023-03-25T19:03:41.944Z,23.33
2023-03-25T19:06:11.845Z,31.23
2023-03-25T19:08:41.142Z,23.50
2023-03-25T19:11:19.688Z,25.45
2023-03-25T19:13:51.649Z,38.15
2023-03-25T19:16:20.405Z,28.88
2023-03-25T19:18:49.087Z,23.85
2023-03-25T19:21:18.575Z,19.85
2023-03-25T19:23:47.374Z,30.48
2023-03-25T19:26:16.020Z,22.05
2023-03-25T19:28:44.684Z,20.70
2023-03-25T19:31:16.558Z,31.08
2023-03-25T19:33:45.334Z,31.55
2023-03-25T19:36:15.368Z,26.08
2023-03-25T19:38:44.188Z,31.58
2023-03-25T19:41:13.413Z,27.98
2023-03-25T19:43:42.343Z,23.63
2023-03-25T19:46:11.408Z,37.03
2023-03-25T19:48:41.714Z,22.38
2023-03-25T19:51:10.383Z,33.70
2023-03-25T19:53:39.176Z,32.53
2023-03-25T19:56:09.645Z,34.05
2023-03-25T19:58:38.238Z,36.60
2023-03-25T20:01:07.029Z,23.02
2023-03-25T20:03:38.566Z,29.63
2023-03-25T20:06:09.446Z,32.03
2023-03-25T20:08:38.080Z,35.20
2023-03-25T20:11:10.753Z,37.83
2023-03-25T20:13:39.378Z,35.03
2023-03-25T20:16:08.631Z,31.75
2023-03-25T20:18:37.324Z,34.78
2023-03-25T20:21:09.890Z,31.92
2023-03-25T20:23:38.604Z,26.05
2023-03-25T20:26:07.811Z,24.65
2023-03-25T20:28:37.286Z,32.13
2023-03-25T20:31:18.278Z,32.17
2023-03-25T20:33:48.631Z,27.35
2023-03-25T20:36:18.651Z,29.67
2023-03-25T20:38:57.214Z,46.47
2023-03-25T20:41:27.987Z,23.95
2023-03-25T20:43:56.659Z,35.53
2023-03-25T20:46:28.496Z,28.00
2023-03-25T20:48:57.943Z,20.15
2023-03-25T20:51:27.953Z,26.40
2023-03-25T20:53:58.033Z,24.70
2023-03-25T20:56:26.610Z,39.83
2023-03-25T20:58:55.236Z,36.25
2023-03-25T21:01:23.897Z,36.53
2023-03-25T21:03:53.420Z,29.25
2023-03-25T21:06:24.798Z,37.15
2023-03-25T21:08:58.330Z,31.02
2023-03-25T21:11:29.822Z,33.22
2023-03-25T21:13:58.407Z,25.40
2023-03-25T21:16:27.675Z,34.95
2023-03-25T21:18:58.235Z,44.10
2023-03-25T21:21:26.911Z,21.27
2023-03-25T21:23:57.056Z,28.10
2023-03-25T21:26:26.015Z,29.50
2023-03-25T21:28:54.620Z,22.95
2023-03-25T21:31:23.446Z,35.08
2023-03-25T21:33:52.971Z,30.98
2023-03-25T21:36:22.935Z,30.40
2023-03-25T21:38:52.373Z,29.50
2023-03-25T21:41:22.109Z,23.48
2023-03-25T21:43:50.848Z,27.05
2023-03-25T21:46:19.379Z,28.73
2023-03-25T21:48:48.560Z,38.58
2023-03-25T21:51:17.361Z,27.50
2023-03-25T21:53:46.429Z,20.73
2023-03-25T21:56:17.384Z,24.33
2023-03-25T21:58:48.542Z,28.60
2023-03-25T22:01:19.753Z,29.58
2023-03-25T22:03:48.557Z,26.88
2023-03-25T22:06:18.698Z,31.83
2023-03-25T22:08:47.697Z,39.38
2023-03-25T22:11:17.442Z,31.80
2023-03-25T22:13:47.639Z,29.92
2023-03-25T22:16:16.924Z,36.88
2023-03-25T22:18:46.065Z,29.27
2023-03-25T22:21:15.491Z,36.83
2023-03-25T22:23:45.077Z,34.15
2023-03-25T22:26:14.592Z,36.03
2023-03-25T22:28:43.558Z,41.88
2023-03-25T22:31:14.335Z,47.03
2023-03-25T22:33:43.170Z,42.22
2023-03-25T22:36:12.873Z,38.35
2023-03-25T22:38:41.547Z,46.45
2023-03-25T22:41:10.369Z,39.17
2023-03-25T22:43:39.015Z,40.50
2023-03-25T22:46:08.180Z,47.97
2023-03-25T22:48:39.417Z,49.17
2023-03-25T22:51:08.408Z,52.38
2023-03-25T22:53:37.022Z,41.45
2023-03-25T22:56:05.778Z,40.83
2023-03-25T22:58:34.404Z,46.58
2023-03-25T23:01:04.046Z,51.65
2023-03-25T23:03:32.859Z,39.45
2023-03-25T23:06:03.679Z,39.33
2023-03-25T23:08:35.152Z,36.60
2023-03-25T23:11:08.752Z,45.35
2023-03-25T23:13:37.800Z,42.28
2023-03-25T23:16:07.813Z,40.95
2023-03-25T23:18:39.237Z,35.35
2023-03-25T23:21:09.737Z,63.78
2023-03-25T23:23:38.331Z,51.78
2023-03-25T23:26:24.747Z,34.65
2023-03-25T23:28:54.220Z,43.50
2023-03-25T23:31:28.542Z,53.00
2023-03-25T23:33:58.410Z,42.85
2023-03-25T23:36:29.249Z,38.90
2023-03-25T23:38:58.823Z,37.33
2023-03-25T23:41:29.223Z,48.95
2023-03-25T23:43:57.871Z,33.72
2023-03-25T23:46:27.273Z,38.03
2023-03-25T23:49:02.006Z,39.92
2023-03-25T23:51:35.005Z,34.20
2023-03-25T23:54:03.911Z,30.70
2023-03-25T23:56:32.868Z,44.45
2023-03-25T23:59:02.376Z,44.05
